createdAt,value
2019-06-01T00:02:24.120Z,21.43
2019-06-01T00:04:56.181Z,21.41
2019-06-01T00:07:29.099Z,21.39
2019-06-01T00:10:01.694Z,21.37
2019-06-01T00:12:33.949Z,21.35
2019-06-01T00:15:06.071Z,21.31
2019-06-01T00:17:38.118Z,21.30
2019-06-01T00:20:10.455Z,21.29
2019-06-01T00:22:43.371Z,21.26
2019-06-01T00:25:15.901Z,21.23
2019-06-01T00:27:48.813Z,21.25
2019-06-01T00:30:27.042Z,21.24
2019-06-01T00:32:56.384Z,21.18
2019-06-01T00:35:36.559Z,21.12
2019-06-01T00:38:10.162Z,21.08
2019-06-01T00:40:44.370Z,21.02
2019-06-01T00:43:18.535Z,20.98
2019-06-01T00:45:50.716Z,20.94
2019-06-01T00:48:24.304Z,20.93
2019-06-01T00:50:57.038Z,20.93
2019-06-01T00:53:29.378Z,20.92
2019-06-01T00:56:02.437Z,20.88
2019-06-01T00:58:35.884Z,20.84
2019-06-01T01:01:09.327Z,20.81
2019-06-01T01:03:41.651Z,20.80
2019-06-01T01:06:14.107Z,20.72
2019-06-01T01:08:55.231Z,20.68
2019-06-01T01:11:28.235Z,20.65
2019-06-01T01:14:01.022Z,20.60
2019-06-01T01:16:34.136Z,20.57
2019-06-01T01:19:07.599Z,20.53
2019-06-01T01:21:39.503Z,20.52
2019-06-01T01:24:20.773Z,20.52
2019-06-01T01:26:52.677Z,20.49
2019-06-01T01:29:25.221Z,20.43
2019-06-01T01:31:57.544Z,20.40
2019-06-01T01:34:38.094Z,20.36
2019-06-01T01:37:30.255Z,20.32
2019-06-01T01:40:03.786Z,20.27
2019-06-01T01:42:36.366Z,20.22
2019-06-01T01:45:09.600Z,20.17
2019-06-01T01:47:42.941Z,20.14
2019-06-01T01:50:17.487Z,20.11
2019-06-01T01:52:50.627Z,20.11
2019-06-01T01:55:33.396Z,20.09
2019-06-01T01:58:05.950Z,20.04
2019-06-01T02:00:46.146Z,20.00
2019-06-01T02:03:19.120Z,19.99
2019-06-01T02:05:51.114Z,19.95
2019-06-01T02:08:23.988Z,19.92
2019-06-01T02:10:59.542Z,19.88
2019-06-01T02:13:33.782Z,19.86
2019-06-01T02:16:06.237Z,19.83
2019-06-01T02:18:37.693Z,19.82
2019-06-01T02:21:11.130Z,19.84
2019-06-01T02:23:43.142Z,19.80
2019-06-01T02:26:16.427Z,19.78
2019-06-01T02:28:50.488Z,19.75
2019-06-01T02:31:39.801Z,19.69
2019-06-01T02:33:58.662Z,19.68
2019-06-01T02:36:32.861Z,19.60
2019-06-01T02:39:07.123Z,19.59
2019-06-01T02:41:40.589Z,19.59
2019-06-01T02:44:13.002Z,19.55
2019-06-01T02:46:45.853Z,19.53
2019-06-01T02:49:17.801Z,19.52
2019-06-01T02:51:50.323Z,19.44
2019-06-01T02:54:24.801Z,19.41
2019-06-01T02:57:14.616Z,19.36
2019-06-01T02:59:48.362Z,19.33
2019-06-01T03:02:21.746Z,19.32
2019-06-01T03:04:57.083Z,19.30
2019-06-01T03:07:31.908Z,19.29
2019-06-01T03:10:06.957Z,19.24
2019-06-01T03:12:45.822Z,19.23
2019-06-01T03:15:19.228Z,19.21
2019-06-01T03:17:56.639Z,19.14
2019-06-01T03:20:31.942Z,19.11
2019-06-01T03:23:05.765Z,19.10
2019-06-01T03:25:41.099Z,19.08
2019-06-01T03:28:16.727Z,19.06
2019-06-01T03:30:49.480Z,19.05
2019-06-01T03:33:23.329Z,18.99
2019-06-01T03:35:56.799Z,18.93
2019-06-01T03:38:30.143Z,18.93
2019-06-01T03:41:04.010Z,18.87
2019-06-01T03:43:35.983Z,18.85
2019-06-01T03:46:09.474Z,18.81
2019-06-01T03:48:41.538Z,18.77
2019-06-01T03:51:22.963Z,18.74
2019-06-01T03:53:55.021Z,18.71
2019-06-01T03:56:28.041Z,18.68
2019-06-01T03:59:03.075Z,18.67
2019-06-01T04:01:36.564Z,18.67
2019-06-01T04:04:09.426Z,18.64
2019-06-01T04:06:42.344Z,18.61
2019-06-01T04:09:14.959Z,18.55
2019-06-01T04:11:47.582Z,18.54
2019-06-01T04:14:20.494Z,18.50
2019-06-01T04:16:53.854Z,18.46
2019-06-01T04:19:35.532Z,18.38
2019-06-01T04:22:12.868Z,18.29
2019-06-01T04:24:45.638Z,18.21
2019-06-01T04:27:19.459Z,18.18
2019-06-01T04:29:52.637Z,18.18
2019-06-01T04:32:26.405Z,18.18
2019-06-01T04:34:58.581Z,18.19
2019-06-01T04:37:31.352Z,18.18
2019-06-01T04:40:05.420Z,18.20
2019-06-01T04:42:44.903Z,18.20
2019-06-01T04:45:18.792Z,18.16
2019-06-01T04:47:50.318Z,18.19
2019-06-01T04:50:30.646Z,18.18
2019-06-01T04:53:13.308Z,18.16
2019-06-01T04:55:45.620Z,18.19
2019-06-01T04:58:17.563Z,18.20
2019-06-01T05:01:01.658Z,18.18
2019-06-01T05:03:35.001Z,18.15
2019-06-01T05:06:07.514Z,17.93
2019-06-01T05:08:40.052Z,17.93
2019-06-01T05:11:13.586Z,17.87
2019-06-01T05:13:46.577Z,17.95
2019-06-01T05:16:20.264Z,18.59
2019-06-01T05:18:54.178Z,19.05
2019-06-01T05:21:26.218Z,18.82
2019-06-01T05:23:59.462Z,19.19
2019-06-01T05:26:32.640Z,20.03
2019-06-01T05:29:07.457Z,20.60
2019-06-01T05:31:39.803Z,20.92
2019-06-01T05:34:20.496Z,21.02
2019-06-01T05:36:52.847Z,20.28
2019-06-01T05:39:24.871Z,19.67
2019-06-01T05:41:57.224Z,19.42
2019-06-01T05:44:30.931Z,19.32
2019-06-01T05:47:04.486Z,19.38
2019-06-01T05:49:36.407Z,19.53
2019-06-01T05:52:18.812Z,19.64
2019-06-01T05:54:50.540Z,19.69
2019-06-01T05:57:23.429Z,19.86
2019-06-01T05:59:55.656Z,20.36
2019-06-01T06:02:27.562Z,20.59
2019-06-01T06:05:00.195Z,20.82
2019-06-01T06:07:35.436Z,20.86
2019-06-01T06:10:09.947Z,20.99
2019-06-01T06:12:42.463Z,21.21
2019-06-01T06:15:15.714Z,21.80
2019-06-01T06:18:05.140Z,21.98
2019-06-01T06:20:50.291Z,22.14
2019-06-01T06:23:24.153Z,22.72
2019-06-01T06:25:55.616Z,22.85
2019-06-01T06:28:28.489Z,23.30
2019-06-01T06:31:00.518Z,24.06
2019-06-01T06:33:36.757Z,24.21
2019-06-01T06:36:07.764Z,24.28
2019-06-01T06:38:40.326Z,24.90
2019-06-01T06:41:24.349Z,25.18
2019-06-01T06:43:57.246Z,25.22
2019-06-01T06:46:41.273Z,25.37
2019-06-01T06:49:14.927Z,25.99
2019-06-01T06:51:47.288Z,26.48
2019-06-01T06:54:19.936Z,26.86
2019-06-01T06:56:59.579Z,26.78
2019-06-01T06:59:32.006Z,26.81
2019-06-01T07:02:05.558Z,27.38
2019-06-01T07:04:47.672Z,27.95
2019-06-01T07:07:20.230Z,28.28
2019-06-01T07:09:52.570Z,28.12
2019-06-01T07:12:25.385Z,27.91
2019-06-01T07:14:58.843Z,27.65
2019-06-01T07:17:31.909Z,27.74
2019-06-01T07:20:05.417Z,28.37
2019-06-01T07:22:37.546Z,28.42
2019-06-01T07:25:12.511Z,28.00
2019-06-01T07:27:45.163Z,27.71
2019-06-01T07:30:18.527Z,27.53
2019-06-01T07:32:51.579Z,27.38
2019-06-01T07:35:24.423Z,27.29
2019-06-01T07:37:57.630Z,27.22
2019-06-01T07:40:30.765Z,27.07
2019-06-01T07:43:03.143Z,26.99
2019-06-01T07:45:35.853Z,27.06
2019-06-01T07:48:08.409Z,27.19
2019-06-01T07:50:40.928Z,27.55
2019-06-01T07:53:14.904Z,27.79
2019-06-01T07:55:48.014Z,27.82
2019-06-01T07:58:20.966Z,27.88
2019-06-01T08:00:53.696Z,27.94
2019-06-01T08:03:28.719Z,27.96
2019-06-01T08:06:00.136Z,28.15
2019-06-01T08:08:32.681Z,28.20
2019-06-01T08:11:04.347Z,28.22
2019-06-01T08:13:36.954Z,28.31
2019-06-01T08:16:09.329Z,28.50
2019-06-01T08:18:43.538Z,28.50
2019-06-01T08:21:16.770Z,28.46
2019-06-01T08:23:48.032Z,28.53
2019-06-01T08:26:20.581Z,28.54
2019-06-01T08:28:52.397Z,28.54
2019-06-01T08:31:24.898Z,28.52
2019-06-01T08:33:57.462Z,28.54
2019-06-01T08:36:29.669Z,28.76
2019-06-01T08:39:02.167Z,28.98
2019-06-01T08:41:34.843Z,29.09
2019-06-01T08:44:09.182Z,28.76
2019-06-01T08:46:51.205Z,28.83
2019-06-01T08:49:25.858Z,28.89
2019-06-01T08:51:59.516Z,29.19
2019-06-01T08:54:34.346Z,29.47
2019-06-01T08:57:06.939Z,29.46
2019-06-01T08:59:39.969Z,29.38
2019-06-01T09:02:14.048Z,29.42
2019-06-01T09:04:46.027Z,29.43
2019-06-01T09:07:19.519Z,29.75
2019-06-01T09:09:52.478Z,29.75
2019-06-01T09:12:25.121Z,29.50
2019-06-01T09:14:58.983Z,29.48
2019-06-01T09:17:31.577Z,29.62
2019-06-01T09:20:04.295Z,29.64
2019-06-01T09:22:37.624Z,29.87
2019-06-01T09:25:10.513Z,29.84
2019-06-01T09:27:42.679Z,29.94
2019-06-01T09:30:16.449Z,30.08
2019-06-01T09:32:48.410Z,30.09
2019-06-01T09:35:19.217Z,30.03
2019-06-01T09:37:51.309Z,29.99
2019-06-01T09:40:23.562Z,29.92
2019-06-01T09:42:55.629Z,30.07
2019-06-01T09:45:28.209Z,30.22
2019-06-01T09:47:59.751Z,30.08
2019-06-01T09:50:33.453Z,30.09
2019-06-01T09:53:05.570Z,29.93
2019-06-01T09:55:38.464Z,29.91
2019-06-01T09:58:11.230Z,30.08
2019-06-01T10:00:44.076Z,30.27
2019-06-01T10:03:16.458Z,30.47
2019-06-01T10:06:01.456Z,30.52
2019-06-01T10:08:22.676Z,30.70
2019-06-01T10:10:56.276Z,30.65
2019-06-01T10:13:28.230Z,30.54
2019-06-01T10:15:59.065Z,30.28
2019-06-01T10:18:30.968Z,30.19
2019-06-01T10:21:03.007Z,30.42
2019-06-01T10:23:34.745Z,30.49
2019-06-01T10:26:07.816Z,30.47
2019-06-01T10:28:40.338Z,30.56
2019-06-01T10:31:11.942Z,30.54
2019-06-01T10:33:43.424Z,30.59
2019-06-01T10:36:20.510Z,30.78
2019-06-01T10:38:49.916Z,30.69
2019-06-01T10:41:22.985Z,30.70
2019-06-01T10:43:55.878Z,30.68
2019-06-01T10:46:29.077Z,30.48
2019-06-01T10:49:01.086Z,30.44
2019-06-01T10:51:32.496Z,30.71
2019-06-01T10:54:05.616Z,30.65
2019-06-01T10:56:38.480Z,30.75
2019-06-01T10:59:11.272Z,30.77
2019-06-01T11:01:42.977Z,30.92
2019-06-01T11:04:15.536Z,30.94
2019-06-01T11:06:48.801Z,31.02
2019-06-01T11:09:20.737Z,31.01
2019-06-01T11:11:53.505Z,31.04
2019-06-01T11:14:24.676Z,31.06
2019-06-01T11:16:57.036Z,31.20
2019-06-01T11:19:28.939Z,31.49
2019-06-01T11:22:00.497Z,31.52
2019-06-01T11:24:33.268Z,31.18
2019-06-01T11:27:05.417Z,31.18
2019-06-01T11:29:42.878Z,31.26
2019-06-01T11:32:10.737Z,31.39
2019-06-01T11:34:42.494Z,31.52
2019-06-01T11:37:15.796Z,31.81
2019-06-01T11:39:47.699Z,31.39
2019-06-01T11:42:19.921Z,30.98
2019-06-01T11:44:52.565Z,31.08
2019-06-01T11:47:23.577Z,31.33
2019-06-01T11:49:55.218Z,31.09
2019-06-01T11:52:30.996Z,30.95
2019-06-01T11:55:04.041Z,30.91
2019-06-01T11:57:35.576Z,30.94
2019-06-01T12:00:09.419Z,31.04
2019-06-01T12:02:41.823Z,31.16
2019-06-01T12:05:14.484Z,31.32
2019-06-01T12:07:46.094Z,31.25
2019-06-01T12:10:17.977Z,31.28
2019-06-01T12:12:50.497Z,31.20
2019-06-01T12:15:26.579Z,31.10
2019-06-01T12:17:57.827Z,31.30
2019-06-01T12:20:29.697Z,31.45
2019-06-01T12:23:01.596Z,31.50
2019-06-01T12:25:33.796Z,31.69
2019-06-01T12:28:05.336Z,31.80
2019-06-01T12:30:37.510Z,31.88
2019-06-01T12:33:09.416Z,31.47
2019-06-01T12:35:42.011Z,31.28
2019-06-01T12:38:13.176Z,31.01
2019-06-01T12:40:43.690Z,30.90
2019-06-01T12:43:14.196Z,30.91
2019-06-01T12:45:45.700Z,31.04
2019-06-01T12:48:17.136Z,30.95
2019-06-01T12:50:50.757Z,30.71
2019-06-01T12:53:19.858Z,30.65
2019-06-01T12:55:50.389Z,30.88
2019-06-01T12:58:21.296Z,31.20
2019-06-01T13:00:52.522Z,31.44
2019-06-01T13:03:22.865Z,31.60
2019-06-01T13:05:53.416Z,31.59
2019-06-01T13:08:23.517Z,31.32
2019-06-01T13:10:53.877Z,31.25
2019-06-01T13:13:24.076Z,31.03
2019-06-01T13:15:54.764Z,30.77
2019-06-01T13:18:25.224Z,30.71
2019-06-01T13:20:56.157Z,30.88
2019-06-01T13:23:27.046Z,30.85
2019-06-01T13:25:57.401Z,30.75
2019-06-01T13:28:37.650Z,30.84
2019-06-01T13:30:59.481Z,30.99
2019-06-01T13:33:29.816Z,31.11
2019-06-01T13:36:00.101Z,31.00
2019-06-01T13:38:31.419Z,31.12
2019-06-01T13:41:03.437Z,30.98
2019-06-01T13:43:34.977Z,30.85
2019-06-01T13:46:06.623Z,30.66
2019-06-01T13:48:37.157Z,30.68
2019-06-01T13:51:09.136Z,30.91
2019-06-01T13:53:40.376Z,30.71
2019-06-01T13:56:11.856Z,30.63
2019-06-01T13:58:42.676Z,30.69
2019-06-01T14:01:14.736Z,30.65
2019-06-01T14:03:45.537Z,30.60
2019-06-01T14:06:17.513Z,30.46
2019-06-01T14:08:51.160Z,30.47
2019-06-01T14:11:22.537Z,30.57
2019-06-01T14:13:56.174Z,30.72
2019-06-01T14:16:27.676Z,30.68
2019-06-01T14:19:01.002Z,30.87
2019-06-01T14:21:33.420Z,30.88
2019-06-01T14:24:05.441Z,30.93
2019-06-01T14:26:37.563Z,30.83
2019-06-01T14:29:09.351Z,30.85
2019-06-01T14:31:41.893Z,30.55
2019-06-01T14:34:14.237Z,30.43
2019-06-01T14:36:46.410Z,30.31
2019-06-01T14:39:18.825Z,30.33
2019-06-01T14:41:51.890Z,30.55
2019-06-01T14:44:23.385Z,30.56
2019-06-01T14:47:04.983Z,30.50
2019-06-01T14:49:28.852Z,30.53
2019-06-01T14:52:00.753Z,30.63
2019-06-01T14:54:33.383Z,30.49
2019-06-01T14:57:05.098Z,30.48
2019-06-01T14:59:37.961Z,30.41
2019-06-01T15:02:14.382Z,30.21
2019-06-01T15:04:46.096Z,30.24
2019-06-01T15:07:18.027Z,30.46
2019-06-01T15:09:50.152Z,30.39
2019-06-01T15:12:22.915Z,30.31
2019-06-01T15:14:55.510Z,30.42
2019-06-01T15:17:27.713Z,30.54
2019-06-01T15:20:00.418Z,30.49
2019-06-01T15:22:31.888Z,30.44
2019-06-01T15:25:04.706Z,30.27
2019-06-01T15:27:38.005Z,30.31
2019-06-01T15:30:10.824Z,30.28
2019-06-01T15:32:42.693Z,30.17
2019-06-01T15:35:16.362Z,30.19
2019-06-01T15:37:51.292Z,30.28
2019-06-01T15:40:23.542Z,30.18
2019-06-01T15:42:55.250Z,30.12
2019-06-01T15:45:41.318Z,30.19
2019-06-01T15:48:13.564Z,30.22
2019-06-01T15:50:45.237Z,30.29
2019-06-01T15:53:17.589Z,30.26
2019-06-01T15:55:49.517Z,30.29
2019-06-01T15:58:22.504Z,30.26
2019-06-01T16:00:56.735Z,30.32
2019-06-01T16:03:28.396Z,30.30
2019-06-01T16:06:01.297Z,30.30
2019-06-01T16:08:34.619Z,30.32
2019-06-01T16:11:07.474Z,30.32
2019-06-01T16:13:40.237Z,30.41
2019-06-01T16:16:13.367Z,30.46
2019-06-01T16:18:46.092Z,30.56
2019-06-01T16:21:18.637Z,30.41
2019-06-01T16:23:50.740Z,30.39
2019-06-01T16:26:22.403Z,30.45
2019-06-01T16:28:54.880Z,30.56
2019-06-01T16:31:26.763Z,30.58
2019-06-01T16:33:59.015Z,30.51
2019-06-01T16:36:31.414Z,30.47
2019-06-01T16:39:07.816Z,30.53
2019-06-01T16:41:41.047Z,30.57
2019-06-01T16:44:13.735Z,30.57
2019-06-01T16:46:45.799Z,30.57
2019-06-01T16:49:17.765Z,30.56
2019-06-01T16:51:54.420Z,30.47
2019-06-01T16:54:26.888Z,30.44
2019-06-01T16:56:59.384Z,30.38
2019-06-01T16:59:32.143Z,30.34
2019-06-01T17:02:06.106Z,30.30
2019-06-01T17:04:40.541Z,30.33
2019-06-01T17:07:12.274Z,30.25
2019-06-01T17:09:46.140Z,30.25
2019-06-01T17:12:18.056Z,30.17
2019-06-01T17:14:58.858Z,30.22
2019-06-01T17:17:38.118Z,30.19
2019-06-01T17:20:07.351Z,30.23
2019-06-01T17:22:41.601Z,30.17
2019-06-01T17:25:14.018Z,30.23
2019-06-01T17:27:45.649Z,30.27
2019-06-01T17:30:18.068Z,30.25
2019-06-01T17:32:50.030Z,30.32
2019-06-01T17:35:22.057Z,30.38
2019-06-01T17:37:53.729Z,30.34
2019-06-01T17:40:36.841Z,30.33
2019-06-01T17:43:00.914Z,30.24
2019-06-01T17:45:41.713Z,30.21
2019-06-01T17:48:25.752Z,30.32
2019-06-01T17:50:49.657Z,30.26
2019-06-01T17:53:21.465Z,30.23
2019-06-01T17:55:53.539Z,30.17
2019-06-01T17:58:26.356Z,30.19
2019-06-01T18:00:58.573Z,30.16
2019-06-01T18:03:32.437Z,30.15
2019-06-01T18:06:05.843Z,30.08
2019-06-01T18:08:38.919Z,29.96
2019-06-01T18:11:10.794Z,29.90
2019-06-01T18:13:42.568Z,29.84
2019-06-01T18:16:15.644Z,29.92
2019-06-01T18:18:47.147Z,29.91
2019-06-01T18:21:19.576Z,29.90
2019-06-01T18:23:53.551Z,29.93
2019-06-01T18:26:25.438Z,29.91
2019-06-01T18:28:57.706Z,29.91
2019-06-01T18:31:31.324Z,29.90
2019-06-01T18:34:05.467Z,29.78
2019-06-01T18:36:45.148Z,29.67
2019-06-01T18:39:19.590Z,29.70
2019-06-01T18:41:54.213Z,29.66
2019-06-01T18:44:26.194Z,29.58
2019-06-01T18:46:59.725Z,29.63
2019-06-01T18:49:31.564Z,29.51
2019-06-01T18:52:06.494Z,29.49
2019-06-01T18:54:38.698Z,29.47
2019-06-01T18:57:20.467Z,29.43
2019-06-01T18:59:47.390Z,29.42
2019-06-01T19:02:20.564Z,29.32
2019-06-01T19:04:52.518Z,29.24
2019-06-01T19:07:25.775Z,29.22
2019-06-01T19:09:57.248Z,29.22
2019-06-01T19:12:29.706Z,29.22
2019-06-01T19:15:01.422Z,29.17
2019-06-01T19:17:42.690Z,29.14
2019-06-01T19:20:17.961Z,29.09
2019-06-01T19:22:49.502Z,29.05
2019-06-01T19:25:21.171Z,28.99
2019-06-01T19:27:53.131Z,28.95
2019-06-01T19:30:39.212Z,28.93
2019-06-01T19:33:15.464Z,28.89
2019-06-01T19:35:46.522Z,28.87
2019-06-01T19:38:19.544Z,28.79
2019-06-01T19:40:51.899Z,28.75
2019-06-01T19:43:24.225Z,28.71
2019-06-01T19:45:57.570Z,28.67
2019-06-01T19:48:31.060Z,28.64
2019-06-01T19:51:04.030Z,28.59
2019-06-01T19:53:36.016Z,28.51
2019-06-01T19:56:08.823Z,28.45
2019-06-01T19:58:41.946Z,28.35
2019-06-01T20:01:14.526Z,28.24
2019-06-01T20:03:47.082Z,28.13
2019-06-01T20:06:20.459Z,28.01
2019-06-01T20:08:53.215Z,27.91
2019-06-01T20:11:26.342Z,27.86
2019-06-01T20:13:57.934Z,27.81
2019-06-01T20:16:38.654Z,27.77
2019-06-01T20:19:13.432Z,27.71
2019-06-01T20:21:46.512Z,27.67
2019-06-01T20:24:19.405Z,27.64
2019-06-01T20:27:00.500Z,27.57
2019-06-01T20:29:32.507Z,27.52
2019-06-01T20:32:06.534Z,27.44
2019-06-01T20:34:52.802Z,27.38
2019-06-01T20:37:24.870Z,27.32
2019-06-01T20:39:56.409Z,27.27
2019-06-01T20:42:32.787Z,27.23
2019-06-01T20:45:03.680Z,27.21
2019-06-01T20:47:36.437Z,27.14
2019-06-01T20:50:12.620Z,27.07
2019-06-01T20:52:45.899Z,27.02
2019-06-01T20:55:21.237Z,26.99
2019-06-01T20:57:52.403Z,26.94
2019-06-01T21:00:24.934Z,26.88
2019-06-01T21:02:57.139Z,26.85
2019-06-01T21:05:28.884Z,26.76
2019-06-01T21:08:01.722Z,26.68
2019-06-01T21:10:34.271Z,26.63
2019-06-01T21:13:08.116Z,26.54
2019-06-01T21:15:42.132Z,26.46
2019-06-01T21:18:14.306Z,26.41
2019-06-01T21:20:46.294Z,26.34
2019-06-01T21:23:20.753Z,26.29
2019-06-01T21:25:53.561Z,26.24
2019-06-01T21:28:26.369Z,26.18
2019-06-01T21:30:58.449Z,26.17
2019-06-01T21:33:32.703Z,26.04
2019-06-01T21:36:05.348Z,25.96
2019-06-01T21:38:39.878Z,25.86
2019-06-01T21:41:12.394Z,25.81
2019-06-01T21:43:46.042Z,25.80
2019-06-01T21:46:19.672Z,25.70
2019-06-01T21:48:52.293Z,25.63
2019-06-01T21:51:26.012Z,25.60
2019-06-01T21:54:00.340Z,25.54
2019-06-01T21:56:32.035Z,25.49
2019-06-01T21:59:04.911Z,25.46
2019-06-01T22:01:37.827Z,25.42
2019-06-01T22:04:11.183Z,25.40
2019-06-01T22:06:46.326Z,25.34
2019-06-01T22:09:17.368Z,25.30
2019-06-01T22:11:49.265Z,25.21
2019-06-01T22:14:23.249Z,25.18
2019-06-01T22:16:56.438Z,25.11
2019-06-01T22:19:30.234Z,25.07
2019-06-01T22:22:02.201Z,25.04
2019-06-01T22:24:33.999Z,25.06
2019-06-01T22:27:06.305Z,25.11
2019-06-01T22:29:38.405Z,25.11
2019-06-01T22:32:10.588Z,25.11
2019-06-01T22:34:43.508Z,25.08
2019-06-01T22:37:16.802Z,25.01
2019-06-01T22:39:49.591Z,24.98
2019-06-01T22:42:22.465Z,24.94
2019-06-01T22:44:57.138Z,24.90
2019-06-01T22:47:30.142Z,24.89
2019-06-01T22:50:02.972Z,24.88
2019-06-01T22:52:36.138Z,24.86
2019-06-01T22:55:10.279Z,24.84
2019-06-01T22:57:44.958Z,24.80
2019-06-01T23:00:19.978Z,24.77
2019-06-01T23:02:51.491Z,24.74
2019-06-01T23:05:23.133Z,24.63
2019-06-01T23:07:54.790Z,24.56
2019-06-01T23:10:31.691Z,24.48
2019-06-01T23:13:00.448Z,24.45
2019-06-01T23:15:32.686Z,24.42
2019-06-01T23:18:05.781Z,24.43
2019-06-01T23:20:38.363Z,24.40
2019-06-01T23:23:11.252Z,24.35
2019-06-01T23:25:43.985Z,24.30
2019-06-01T23:28:16.044Z,24.26
2019-06-01T23:30:48.546Z,24.24
2019-06-01T23:33:20.766Z,24.21
2019-06-01T23:35:54.037Z,24.13
2019-06-01T23:38:26.810Z,24.05
2019-06-01T23:40:59.542Z,23.99
2019-06-01T23:43:32.993Z,23.86
2019-06-01T23:46:05.589Z,23.69
2019-06-01T23:48:37.452Z,23.58
2019-06-01T23:51:14.121Z,23.53
2019-06-01T23:53:45.860Z,23.49
2019-06-01T23:56:17.956Z,23.45
2019-06-01T23:58:50.194Z,23.40
